createdAt,value
2018-05-16T00:00:30.700Z,16.39
2018-05-16T00:02:59.107Z,16.42
2018-05-16T00:05:28.572Z,16.34
2018-05-16T00:07:56.883Z,16.35
2018-05-16T00:10:25.256Z,16.29
2018-05-16T00:12:53.591Z,16.26
2018-05-16T00:15:21.989Z,16.28
2018-05-16T00:17:50.290Z,16.36
2018-05-16T00:20:18.626Z,16.54
2018-05-16T00:22:46.945Z,16.59
2018-05-16T00:25:15.329Z,16.73
2018-05-16T00:27:43.706Z,16.86
2018-05-16T00:30:12.057Z,16.92
2018-05-16T00:32:40.373Z,17.01
2018-05-16T00:35:08.753Z,17.14
2018-05-16T00:37:37.123Z,17.16
2018-05-16T00:40:05.505Z,17.20
2018-05-16T00:42:34.558Z,17.11
2018-05-16T00:45:03.187Z,17.06
2018-05-16T00:47:31.562Z,16.97
2018-05-16T00:50:00.738Z,17.03
2018-05-16T00:52:29.035Z,16.90
2018-05-16T00:54:57.418Z,16.83
2018-05-16T00:57:25.793Z,16.79
2018-05-16T00:59:54.125Z,16.70
2018-05-16T01:02:22.443Z,16.65
2018-05-16T01:04:51.446Z,16.64
2018-05-16T01:07:19.788Z,16.74
2018-05-16T01:09:48.174Z,16.70
2018-05-16T01:12:16.561Z,16.53
2018-05-16T01:14:44.933Z,16.56
2018-05-16T01:17:13.303Z,16.41
2018-05-16T01:19:41.880Z,16.38
2018-05-16T01:22:10.195Z,16.26
2018-05-16T01:24:38.592Z,16.06
2018-05-16T01:27:07.027Z,15.96
2018-05-16T01:29:35.400Z,15.93
2018-05-16T01:32:03.780Z,15.84
2018-05-16T01:34:32.196Z,15.67
2018-05-16T01:37:00.645Z,15.72
2018-05-16T01:39:29.181Z,15.69
2018-05-16T01:41:57.569Z,15.67
2018-05-16T01:44:25.903Z,15.58
2018-05-16T01:46:54.227Z,15.61
2018-05-16T01:49:23.079Z,15.61
2018-05-16T01:51:51.467Z,15.64
2018-05-16T01:54:19.901Z,15.75
2018-05-16T01:56:48.647Z,15.78
2018-05-16T01:59:17.012Z,15.85
2018-05-16T02:01:45.443Z,15.93
2018-05-16T02:04:14.100Z,15.95
2018-05-16T02:06:42.451Z,15.96
2018-05-16T02:09:10.794Z,15.94
2018-05-16T02:11:39.166Z,15.90
2018-05-16T02:14:07.511Z,15.81
2018-05-16T02:16:35.854Z,15.91
2018-05-16T02:19:04.265Z,15.88
2018-05-16T02:21:32.787Z,15.81
2018-05-16T02:24:01.265Z,15.81
2018-05-16T02:26:29.681Z,15.86
2018-05-16T02:28:58.200Z,15.90
2018-05-16T02:31:26.501Z,15.87
2018-05-16T02:33:54.876Z,15.86
2018-05-16T02:36:23.199Z,15.84
2018-05-16T02:38:51.639Z,15.90
2018-05-16T02:41:20.512Z,15.86
2018-05-16T02:43:48.857Z,15.87
2018-05-16T02:46:17.280Z,15.84
2018-05-16T02:48:46.539Z,15.81
2018-05-16T02:51:14.865Z,15.73
2018-05-16T02:53:43.207Z,15.79
2018-05-16T02:56:11.698Z,15.81
2018-05-16T02:58:40.161Z,15.83
2018-05-16T03:01:08.502Z,15.97
2018-05-16T03:03:36.933Z,16.07
2018-05-16T03:06:05.508Z,15.97
2018-05-16T03:08:33.843Z,15.81
2018-05-16T03:11:02.265Z,15.72
2018-05-16T03:13:30.645Z,15.73
2018-05-16T03:15:59.083Z,15.70
2018-05-16T03:18:27.440Z,15.75
2018-05-16T03:20:55.776Z,15.81
2018-05-16T03:23:24.088Z,15.90
2018-05-16T03:25:52.557Z,15.83
2018-05-16T03:28:20.877Z,15.73
2018-05-16T03:30:49.225Z,15.81
2018-05-16T03:33:17.623Z,15.73
2018-05-16T03:35:45.984Z,15.61
2018-05-16T03:38:14.319Z,15.60
2018-05-16T03:40:42.719Z,15.53
2018-05-16T03:43:11.077Z,15.64
2018-05-16T03:45:39.426Z,15.70
2018-05-16T03:48:08.124Z,15.64
2018-05-16T03:50:36.527Z,15.67
2018-05-16T03:53:05.059Z,15.68
2018-05-16T03:55:34.051Z,15.64
2018-05-16T03:58:22.938Z,15.65
2018-05-16T04:01:03.546Z,15.66
2018-05-16T04:03:43.723Z,15.67
2018-05-16T04:06:12.116Z,15.75
2018-05-16T04:08:40.585Z,15.90
2018-05-16T04:11:09.299Z,16.10
2018-05-16T04:13:38.630Z,16.20
2018-05-16T04:16:07.045Z,16.26
2018-05-16T04:18:35.433Z,16.25
2018-05-16T04:21:03.783Z,16.24
2018-05-16T04:23:32.113Z,16.38
2018-05-16T04:26:00.526Z,16.44
2018-05-16T04:28:29.083Z,16.58
2018-05-16T04:30:57.394Z,16.64
2018-05-16T04:33:25.726Z,16.59
2018-05-16T04:35:54.088Z,16.65
2018-05-16T04:38:22.425Z,16.59
2018-05-16T04:40:50.915Z,16.59
2018-05-16T04:43:19.953Z,16.58
2018-05-16T04:45:48.318Z,16.49
2018-05-16T04:48:16.667Z,16.61
2018-05-16T04:50:44.989Z,16.77
2018-05-16T04:53:13.314Z,16.80
2018-05-16T04:55:41.649Z,16.80
2018-05-16T04:58:10.036Z,16.82
2018-05-16T05:00:38.402Z,16.82
2018-05-16T05:03:06.888Z,16.81
2018-05-16T05:05:35.368Z,16.92
2018-05-16T05:08:03.748Z,16.79
2018-05-16T05:10:32.194Z,16.79
2018-05-16T05:13:01.245Z,16.81
2018-05-16T05:15:29.742Z,16.82
2018-05-16T05:17:58.081Z,16.67
2018-05-16T05:20:26.559Z,16.82
2018-05-16T05:22:54.917Z,16.69
2018-05-16T05:25:23.211Z,16.79
2018-05-16T05:27:51.912Z,16.79
2018-05-16T05:30:20.380Z,16.85
2018-05-16T05:32:48.653Z,16.90
2018-05-16T05:35:17.563Z,17.02
2018-05-16T05:37:45.962Z,17.07
2018-05-16T05:40:14.312Z,17.11
2018-05-16T05:42:42.750Z,17.21
2018-05-16T05:45:11.140Z,17.34
2018-05-16T05:47:39.770Z,17.42
2018-05-16T05:50:09.019Z,17.51
2018-05-16T05:52:38.531Z,17.60
2018-05-16T05:55:06.924Z,17.83
2018-05-16T05:57:35.692Z,18.00
2018-05-16T06:00:04.031Z,18.14
2018-05-16T06:02:32.562Z,18.39
2018-05-16T06:05:01.269Z,18.41
2018-05-16T06:07:29.880Z,18.52
2018-05-16T06:09:58.419Z,18.68
2018-05-16T06:12:26.853Z,18.60
2018-05-16T06:14:55.195Z,18.66
2018-05-16T06:17:23.565Z,18.86
2018-05-16T06:19:53.466Z,18.80
2018-05-16T06:22:22.757Z,18.87
2018-05-16T06:24:51.073Z,19.08
2018-05-16T06:27:20.479Z,19.01
2018-05-16T06:29:48.724Z,19.11
2018-05-16T06:32:17.012Z,19.17
2018-05-16T06:34:45.389Z,19.26
2018-05-16T06:37:13.761Z,19.25
2018-05-16T06:39:42.049Z,19.29
2018-05-16T06:42:10.595Z,19.42
2018-05-16T06:44:38.927Z,19.51
2018-05-16T06:47:07.369Z,19.66
2018-05-16T06:49:35.705Z,19.80
2018-05-16T06:52:04.045Z,19.80
2018-05-16T06:54:32.501Z,19.94
2018-05-16T06:57:01.320Z,19.96
2018-05-16T06:59:29.772Z,20.15
2018-05-16T07:01:58.081Z,20.29
2018-05-16T07:04:27.182Z,20.17
2018-05-16T07:06:55.527Z,20.05
2018-05-16T07:09:23.845Z,19.91
2018-05-16T07:11:52.921Z,19.84
2018-05-16T07:14:21.250Z,19.88
2018-05-16T07:16:49.585Z,19.98
2018-05-16T07:19:17.939Z,19.92
2018-05-16T07:21:46.326Z,19.80
2018-05-16T07:24:14.630Z,19.96
2018-05-16T07:26:46.677Z,19.87
2018-05-16T07:29:15.032Z,20.10
2018-05-16T07:31:43.385Z,20.09
2018-05-16T07:34:11.835Z,20.10
2018-05-16T07:36:40.189Z,20.12
2018-05-16T07:39:08.557Z,20.08
2018-05-16T07:41:37.173Z,20.04
2018-05-16T07:44:05.538Z,19.85
2018-05-16T07:46:33.930Z,19.95
2018-05-16T07:49:03.172Z,19.95
2018-05-16T07:51:31.654Z,20.10
2018-05-16T07:54:01.200Z,19.83
2018-05-16T07:56:29.636Z,19.76
2018-05-16T07:58:57.941Z,19.76
2018-05-16T08:01:26.279Z,19.95
2018-05-16T08:03:54.627Z,19.89
2018-05-16T08:06:22.983Z,20.04
2018-05-16T08:08:51.274Z,19.96
2018-05-16T08:11:19.605Z,20.03
2018-05-16T08:13:47.936Z,20.29
2018-05-16T08:16:16.332Z,20.54
2018-05-16T08:18:44.666Z,20.25
2018-05-16T08:21:13.010Z,20.46
2018-05-16T08:23:41.375Z,20.34
2018-05-16T08:26:09.772Z,20.22
2018-05-16T08:28:38.286Z,20.45
2018-05-16T08:31:06.664Z,20.67
2018-05-16T08:33:35.007Z,20.67
2018-05-16T08:36:03.395Z,20.66
2018-05-16T08:38:31.927Z,20.45
2018-05-16T08:41:00.896Z,20.38
2018-05-16T08:43:29.488Z,20.54
2018-05-16T08:45:57.863Z,20.87
2018-05-16T08:48:26.665Z,20.83
2018-05-16T08:50:55.004Z,20.64
2018-05-16T08:53:23.415Z,20.88
2018-05-16T08:55:52.309Z,21.00
2018-05-16T08:58:20.632Z,21.20
2018-05-16T09:00:48.959Z,21.38
2018-05-16T09:03:18.053Z,21.49
2018-05-16T09:05:46.370Z,21.51
2018-05-16T09:08:14.714Z,21.60
2018-05-16T09:10:43.307Z,21.39
2018-05-16T09:13:11.725Z,21.00
2018-05-16T09:15:40.508Z,20.99
2018-05-16T09:18:09.744Z,20.92
2018-05-16T09:20:38.089Z,20.83
2018-05-16T09:23:06.440Z,20.79
2018-05-16T09:25:35.153Z,21.17
2018-05-16T09:28:03.583Z,21.20
2018-05-16T09:30:31.944Z,21.35
2018-05-16T09:33:01.038Z,21.49
2018-05-16T09:35:30.231Z,21.59
2018-05-16T09:37:58.649Z,21.60
2018-05-16T09:40:27.209Z,22.11
2018-05-16T09:42:55.495Z,22.47
2018-05-16T09:45:23.831Z,22.79
2018-05-16T09:47:52.998Z,22.70
2018-05-16T09:50:21.301Z,22.57
2018-05-16T09:52:49.667Z,22.51
2018-05-16T09:55:18.269Z,22.44
2018-05-16T09:57:46.652Z,22.59
2018-05-16T10:00:15.005Z,22.70
2018-05-16T10:02:43.936Z,22.77
2018-05-16T10:05:12.246Z,23.59
2018-05-16T10:07:40.638Z,23.98
2018-05-16T10:10:09.061Z,23.78
2018-05-16T10:12:37.520Z,23.65
2018-05-16T10:15:05.895Z,22.78
2018-05-16T10:17:34.781Z,23.06
2018-05-16T10:20:03.138Z,23.37
2018-05-16T10:22:31.648Z,23.02
2018-05-16T10:25:00.855Z,22.96
2018-05-16T10:27:29.224Z,23.21
2018-05-16T10:29:57.538Z,23.51
2018-05-16T10:32:25.899Z,23.40
2018-05-16T10:34:54.209Z,23.63
2018-05-16T10:37:22.533Z,23.86
2018-05-16T10:39:51.054Z,23.86
2018-05-16T10:42:19.405Z,24.82
2018-05-16T10:44:47.704Z,24.03
2018-05-16T10:47:16.050Z,23.83
2018-05-16T10:49:44.442Z,23.98
2018-05-16T10:52:13.283Z,23.85
2018-05-16T10:54:41.589Z,24.36
2018-05-16T10:57:09.970Z,23.86
2018-05-16T10:59:38.337Z,24.42
2018-05-16T11:02:06.765Z,24.40
2018-05-16T11:04:35.523Z,24.85
2018-05-16T11:07:03.912Z,24.47
2018-05-16T11:09:32.574Z,25.19
2018-05-16T11:12:00.904Z,25.24
2018-05-16T11:14:29.262Z,24.96
2018-05-16T11:16:57.614Z,24.45
2018-05-16T11:19:25.943Z,24.65
2018-05-16T11:21:54.268Z,25.23
2018-05-16T11:24:22.640Z,25.78
2018-05-16T11:26:51.024Z,25.61
2018-05-16T11:29:20.206Z,25.71
2018-05-16T11:31:49.009Z,25.45
2018-05-16T11:34:17.265Z,25.47
2018-05-16T11:36:45.585Z,24.65
2018-05-16T11:39:14.042Z,24.10
2018-05-16T11:41:42.385Z,24.08
2018-05-16T11:44:10.726Z,23.63
2018-05-16T11:46:39.499Z,24.21
2018-05-16T11:49:07.909Z,24.64
2018-05-16T11:51:36.308Z,26.05
2018-05-16T11:54:06.065Z,25.99
2018-05-16T11:56:34.519Z,25.51
2018-05-16T11:59:03.046Z,25.51
2018-05-16T12:01:31.605Z,25.78
2018-05-16T12:04:00.360Z,25.46
2018-05-16T12:06:28.774Z,25.22
2018-05-16T12:08:57.457Z,25.71
2018-05-16T12:11:25.784Z,25.84
2018-05-16T12:13:54.104Z,26.50
2018-05-16T12:16:23.264Z,25.99
2018-05-16T12:18:51.788Z,26.22
2018-05-16T12:21:20.109Z,26.47
2018-05-16T12:23:48.643Z,25.89
2018-05-16T12:26:16.988Z,25.77
2018-05-16T12:28:45.311Z,26.10
2018-05-16T12:31:14.765Z,25.82
2018-05-16T12:33:43.168Z,25.85
2018-05-16T12:36:11.538Z,25.29
2018-05-16T12:38:40.435Z,24.48
2018-05-16T12:41:08.894Z,24.26
2018-05-16T12:43:37.317Z,23.92
2018-05-16T12:46:06.187Z,24.04
2018-05-16T12:48:34.597Z,23.84
2018-05-16T12:51:03.358Z,24.23
2018-05-16T12:53:31.752Z,24.36
2018-05-16T12:56:00.114Z,24.21
2018-05-16T12:58:28.492Z,23.72
2018-05-16T13:00:56.851Z,23.61
2018-05-16T13:03:25.170Z,23.33
2018-05-16T13:05:53.470Z,23.52
2018-05-16T13:08:21.933Z,23.69
2018-05-16T13:10:50.226Z,23.89
2018-05-16T13:13:18.570Z,23.88
2018-05-16T13:15:47.742Z,23.69
2018-05-16T13:18:16.083Z,23.44
2018-05-16T13:20:44.487Z,23.23
2018-05-16T13:23:12.943Z,23.01
2018-05-16T13:25:41.359Z,23.07
2018-05-16T13:28:14.193Z,23.16
2018-05-16T13:30:42.889Z,23.18
2018-05-16T13:33:11.395Z,23.39
2018-05-16T13:35:39.985Z,23.33
2018-05-16T13:38:08.679Z,23.23
2018-05-16T13:40:37.004Z,23.45
2018-05-16T13:43:05.401Z,23.61
2018-05-16T13:45:34.657Z,23.57
2018-05-16T13:48:03.059Z,23.71
2018-05-16T13:50:31.439Z,23.77
2018-05-16T13:53:00.369Z,23.55
2018-05-16T13:55:28.976Z,23.38
2018-05-16T13:57:57.307Z,23.16
2018-05-16T14:00:25.672Z,23.18
2018-05-16T14:02:53.990Z,23.06
2018-05-16T14:05:22.329Z,23.04
2018-05-16T14:07:50.726Z,23.16
2018-05-16T14:10:19.060Z,22.96
2018-05-16T14:12:47.430Z,23.11
2018-05-16T14:15:15.843Z,22.97
2018-05-16T14:17:44.339Z,22.83
2018-05-16T14:20:12.696Z,23.21
2018-05-16T14:22:42.143Z,23.24
2018-05-16T14:25:10.568Z,23.13
2018-05-16T14:27:38.941Z,23.13
2018-05-16T14:30:07.488Z,22.75
2018-05-16T14:32:36.101Z,22.65
2018-05-16T14:35:04.663Z,22.54
2018-05-16T14:37:33.448Z,22.81
2018-05-16T14:40:02.308Z,23.73
2018-05-16T14:42:30.850Z,24.63
2018-05-16T14:44:59.808Z,24.81
2018-05-16T14:47:28.114Z,24.88
2018-05-16T14:49:56.418Z,24.73
2018-05-16T14:52:24.843Z,25.06
2018-05-16T14:54:53.185Z,24.89
2018-05-16T14:57:21.499Z,24.94
2018-05-16T14:59:50.617Z,25.53
2018-05-16T15:02:18.954Z,26.01
2018-05-16T15:04:47.370Z,26.66
2018-05-16T15:07:16.237Z,27.06
2018-05-16T15:09:44.594Z,26.89
2018-05-16T15:12:12.911Z,26.73
2018-05-16T15:14:42.172Z,26.82
2018-05-16T15:17:10.707Z,26.52
2018-05-16T15:19:39.101Z,26.64
2018-05-16T15:22:07.620Z,26.48
2018-05-16T15:24:36.311Z,26.46
2018-05-16T15:27:04.785Z,25.99
2018-05-16T15:29:33.996Z,25.63
2018-05-16T15:32:02.388Z,25.26
2018-05-16T15:34:30.876Z,24.46
2018-05-16T15:37:00.026Z,24.28
2018-05-16T15:39:28.384Z,24.37
2018-05-16T15:41:56.715Z,24.04
2018-05-16T15:44:25.360Z,23.72
2018-05-16T15:46:53.678Z,23.72
2018-05-16T15:49:22.177Z,23.75
2018-05-16T15:51:50.596Z,23.69
2018-05-16T15:54:18.933Z,23.82
2018-05-16T15:56:47.255Z,23.83
2018-05-16T15:59:15.734Z,23.94
2018-05-16T16:01:44.203Z,23.71
2018-05-16T16:04:12.704Z,23.76
2018-05-16T16:06:41.881Z,23.52
2018-05-16T16:09:10.247Z,23.41
2018-05-16T16:11:38.634Z,23.53
2018-05-16T16:14:07.288Z,23.37
2018-05-16T16:16:36.100Z,23.43
2018-05-16T16:19:04.488Z,23.61
2018-05-16T16:21:34.073Z,23.77
2018-05-16T16:24:02.549Z,23.65
2018-05-16T16:26:31.030Z,23.85
2018-05-16T16:28:59.554Z,23.94
2018-05-16T16:31:28.033Z,23.87
2018-05-16T16:33:56.246Z,24.08
2018-05-16T16:36:24.583Z,24.38
2018-05-16T16:38:53.149Z,24.41
2018-05-16T16:41:21.357Z,24.15
2018-05-16T16:43:49.786Z,24.24
2018-05-16T16:46:18.186Z,24.05
2018-05-16T16:48:46.558Z,23.78
2018-05-16T16:51:15.416Z,23.73
2018-05-16T16:53:43.843Z,23.85
2018-05-16T16:56:12.228Z,23.84
2018-05-16T16:58:41.024Z,23.79
2018-05-16T17:01:09.452Z,23.97
2018-05-16T17:03:37.891Z,24.05
2018-05-16T17:06:06.357Z,23.97
2018-05-16T17:08:34.763Z,24.11
2018-05-16T17:11:03.793Z,24.16
2018-05-16T17:13:33.739Z,24.15
2018-05-16T17:16:02.424Z,24.07
2018-05-16T17:18:31.724Z,24.03
2018-05-16T17:21:00.513Z,23.97
2018-05-16T17:23:28.908Z,24.09
2018-05-16T17:25:57.360Z,24.06
2018-05-16T17:28:25.851Z,24.05
2018-05-16T17:30:54.224Z,23.97
2018-05-16T17:33:22.589Z,23.82
2018-05-16T17:35:51.091Z,23.64
2018-05-16T17:38:19.459Z,23.94
2018-05-16T17:40:47.810Z,23.65
2018-05-16T17:43:16.221Z,23.56
2018-05-16T17:45:44.637Z,23.55
2018-05-16T17:48:13.006Z,23.29
2018-05-16T17:50:41.466Z,23.26
2018-05-16T17:53:09.892Z,23.23
2018-05-16T17:55:38.321Z,23.14
2018-05-16T17:58:07.006Z,23.69
2018-05-16T18:00:35.459Z,23.83
2018-05-16T18:03:03.774Z,23.84
2018-05-16T18:05:33.311Z,23.89
2018-05-16T18:08:02.270Z,23.90
2018-05-16T18:10:31.069Z,24.15
2018-05-16T18:16:40.024Z,23.80
2018-05-16T18:19:08.482Z,23.39
2018-05-16T18:21:36.899Z,23.48
2018-05-16T18:24:05.253Z,23.71
2018-05-16T18:26:34.433Z,23.65
2018-05-16T18:29:02.811Z,23.25
2018-05-16T18:31:31.227Z,23.02
2018-05-16T18:33:59.697Z,22.80
2018-05-16T18:36:28.043Z,22.62
2018-05-16T18:38:56.352Z,22.29
2018-05-16T18:41:24.711Z,22.17
2018-05-16T18:43:53.024Z,22.25
2018-05-16T18:46:21.371Z,21.90
2018-05-16T18:48:50.205Z,21.76
2018-05-16T18:51:18.842Z,21.78
2018-05-16T18:53:47.199Z,21.61
2018-05-16T18:56:16.313Z,21.55
2018-05-16T18:58:44.623Z,21.64
2018-05-16T19:01:13.030Z,21.46
2018-05-16T19:03:41.431Z,21.43
2018-05-16T19:06:09.897Z,20.99
2018-05-16T19:08:38.304Z,20.93
2018-05-16T19:11:07.545Z,20.87
2018-05-16T19:13:35.921Z,20.78
2018-05-16T19:16:04.360Z,20.45
2018-05-16T19:18:32.943Z,20.24
2018-05-16T19:21:02.346Z,20.10
2018-05-16T19:23:30.777Z,20.13
2018-05-16T19:25:59.111Z,19.91
2018-05-16T19:28:27.490Z,19.96
2018-05-16T19:30:55.828Z,19.85
2018-05-16T19:33:24.205Z,19.75
2018-05-16T19:35:52.534Z,19.82
2018-05-16T19:38:20.848Z,19.70
2018-05-16T19:40:49.189Z,19.58
2018-05-16T19:43:17.544Z,19.44
2018-05-16T19:45:45.928Z,19.42
2018-05-16T19:48:14.302Z,19.28
2018-05-16T19:50:42.954Z,19.28
2018-05-16T19:53:11.482Z,19.21
2018-05-16T19:55:40.218Z,19.10
2018-05-16T19:58:08.555Z,18.95
2018-05-16T20:00:36.873Z,18.93
2018-05-16T20:03:06.224Z,18.84
2018-05-16T20:05:35.337Z,18.84
2018-05-16T20:08:03.753Z,18.69
2018-05-16T20:10:32.971Z,18.48
2018-05-16T20:13:01.326Z,18.45
2018-05-16T20:15:29.747Z,18.36
2018-05-16T20:17:58.842Z,18.34
2018-05-16T20:20:27.139Z,18.08
2018-05-16T20:22:55.441Z,18.05
2018-05-16T20:25:23.784Z,18.04
2018-05-16T20:27:52.097Z,17.86
2018-05-16T20:30:20.437Z,17.70
2018-05-16T20:32:48.845Z,17.63
2018-05-16T20:35:17.206Z,17.71
2018-05-16T20:37:45.552Z,17.32
2018-05-16T20:40:13.886Z,17.28
2018-05-16T20:42:42.203Z,17.07
2018-05-16T20:45:10.585Z,17.14
2018-05-16T20:47:38.963Z,17.18
2018-05-16T20:50:07.403Z,17.24
2018-05-16T20:52:35.822Z,17.28
2018-05-16T20:55:04.441Z,17.14
2018-05-16T20:57:32.841Z,17.04
2018-05-16T21:00:01.446Z,16.89
2018-05-16T21:02:29.958Z,16.88
2018-05-16T21:04:58.276Z,16.70
2018-05-16T21:07:26.672Z,16.57
2018-05-16T21:09:55.433Z,16.59
2018-05-16T21:12:23.805Z,16.45
2018-05-16T21:14:52.123Z,16.28
2018-05-16T21:17:20.568Z,16.34
2018-05-16T21:19:48.885Z,16.31
2018-05-16T21:22:17.244Z,16.25
2018-05-16T21:24:46.215Z,16.35
2018-05-16T21:27:14.547Z,16.11
2018-05-16T21:29:42.906Z,15.84
2018-05-16T21:32:11.407Z,15.84
2018-05-16T21:34:40.261Z,15.92
2018-05-16T21:37:08.688Z,15.94
2018-05-16T21:39:37.426Z,15.90
2018-05-16T21:42:05.803Z,15.80
2018-05-16T21:44:34.139Z,15.81
2018-05-16T21:47:03.141Z,15.78
2018-05-16T21:49:31.578Z,15.48
2018-05-16T21:52:00.034Z,15.51
2018-05-16T21:54:29.170Z,15.51
2018-05-16T21:56:57.535Z,15.42
2018-05-16T21:59:25.880Z,15.36
2018-05-16T22:01:54.998Z,15.34
2018-05-16T22:04:24.687Z,15.27
2018-05-16T22:06:52.987Z,15.16
2018-05-16T22:09:21.368Z,15.03
2018-05-16T22:11:49.769Z,14.95
2018-05-16T22:14:18.415Z,14.91
2018-05-16T22:16:46.959Z,14.79
2018-05-16T22:19:15.268Z,14.74
2018-05-16T22:21:43.577Z,14.62
2018-05-16T22:24:12.453Z,14.63
2018-05-16T22:26:40.781Z,14.44
2018-05-16T22:29:09.118Z,14.36
2018-05-16T22:31:43.541Z,14.11
2018-05-16T22:34:17.483Z,13.97
2018-05-16T22:36:51.499Z,13.94
2018-05-16T22:39:26.143Z,13.88
2018-05-16T22:42:00.341Z,13.61
2018-05-16T22:44:35.425Z,13.57
2018-05-16T22:47:03.984Z,13.35
2018-05-16T22:49:32.341Z,13.32
2018-05-16T22:52:01.225Z,13.31
2018-05-16T22:54:29.690Z,13.26
2018-05-16T22:56:58.032Z,13.15
2018-05-16T22:59:26.369Z,13.26
2018-05-16T23:01:54.727Z,13.09
2018-05-16T23:04:23.095Z,13.09
2018-05-16T23:06:51.398Z,12.96
2018-05-16T23:09:19.977Z,13.01
2018-05-16T23:11:48.350Z,12.97
2018-05-16T23:14:16.632Z,12.88
2018-05-16T23:16:45.252Z,12.80
2018-05-16T23:19:13.580Z,12.71
2018-05-16T23:21:42.053Z,12.58
2018-05-16T23:24:11.209Z,12.63
2018-05-16T23:26:39.584Z,12.48
2018-05-16T23:29:08.095Z,12.46
2018-05-16T23:31:36.885Z,12.34
2018-05-16T23:34:05.468Z,12.40
2018-05-16T23:36:33.820Z,12.33
2018-05-16T23:39:02.524Z,12.26
2018-05-16T23:41:31.003Z,12.12
2018-05-16T23:43:59.385Z,12.16
2018-05-16T23:46:27.773Z,12.12
2018-05-16T23:48:56.072Z,11.99
2018-05-16T23:51:24.467Z,11.91
2018-05-16T23:53:52.798Z,11.68
2018-05-16T23:56:21.130Z,11.72
2018-05-16T23:58:49.450Z,11.68
